Time;durP1;ratioP1;P1;durP2;ratioP2;P2;SDS_P1;SDS_P2;PMS_P1;PMS_P2;Temp;Humidity;BMP_temperature;BMP_pressure;BME280_temperature;BME280_humidity;BME280_pressure;Samples;Min_cycle;Max_cycle;Signal;HPM_P1;HPM_P2
2021/01/08 00:01:23;;;;;;;27.67;13.70;;;;;;;1.48;100.00;97734.47;4993047;28;20037;-81
2021/01/08 00:03:49;;;;;;;34.20;15.52;;;;;;;1.25;100.00;97725.69;4993320;28;20026;-80
2021/01/08 00:06:20;;;;;;;25.50;14.43;;;;;;;1.21;100.00;97714.59;4993677;28;20633;-81
2021/01/08 00:08:46;;;;;;;28.50;14.52;;;;;;;1.08;100.00;97690.63;4992987;28;20089;-79
2021/01/08 00:11:19;;;;;;;29.00;15.65;;;;;;;1.11;100.00;97711.69;4993148;28;20026;-80
2021/01/08 00:13:44;;;;;;;27.02;16.10;;;;;;;1.14;100.00;97710.38;4993048;28;20391;-79
2021/01/08 00:16:10;;;;;;;30.75;15.98;;;;;;;1.16;100.00;97713.69;4993363;28;20022;-87
2021/01/08 00:18:35;;;;;;;30.25;16.13;;;;;;;1.11;100.00;97711.69;4994807;28;20085;-84
2021/01/08 00:21:00;;;;;;;;;;;;;;;1.16;100.00;97714.47;4994362;28;20052;-84
2021/01/08 00:23:26;;;;;;;28.42;13.80;;;;;;;1.16;100.00;97700.22;4992944;28;20000;-79
2021/01/08 00:25:54;;;;;;;;;;;;;;;1.15;100.00;97712.03;4993500;28;20372;-86
2021/01/08 00:28:19;;;;;;;34.63;17.58;;;;;;;1.13;100.00;97700.69;4994627;28;19918;-90
2021/01/08 00:30:45;;;;;;;32.35;17.65;;;;;;;1.03;100.00;97683.28;4994135;28;20029;-78
2021/01/08 00:33:10;;;;;;;;;;;;;;;1.25;100.00;97698.75;4992083;28;20031;-80
2021/01/08 00:35:40;;;;;;;41.75;16.13;;;;;;;1.15;100.00;97687.78;4992113;28;19949;-83
2021/01/08 00:38:06;;;;;;;32.58;16.02;;;;;;;1.26;100.00;97697.69;4993182;28;20383;-77
2021/01/08 00:40:32;;;;;;;30.45;16.00;;;;;;;1.24;100.00;97697.13;4992603;28;20030;-81
2021/01/08 00:42:57;;;;;;;29.02;15.05;;;;;;;1.41;100.00;97703.38;4992725;28;20042;-81
2021/01/08 00:45:22;;;;;;;27.98;14.18;;;;;;;1.16;100.00;97681.38;4992291;28;20027;-81
2021/01/08 00:47:48;;;;;;;;;;;;;;;1.29;100.00;97702.59;4991767;28;20475;-85
2021/01/08 00:50:13;;;;;;;32.30;14.05;;;;;;;1.28;100.00;97693.72;4990543;28;20489;-80
2021/01/08 00:52:39;;;;;;;24.73;13.20;;;;;;;1.40;100.00;97715.19;4992350;28;20403;-85
2021/01/08 00:55:04;;;;;;;33.88;17.80;;;;;;;1.27;100.00;97704.72;4991182;28;20141;-83
2021/01/08 00:57:30;;;;;;;;;;;;;;;1.28;100.00;97709.06;4991288;28;20051;-76
2021/01/08 00:59:55;;;;;;;28.25;13.88;;;;;;;1.28;100.00;97717.94;4991279;28;20274;-78
2021/01/08 01:02:20;;;;;;;31.65;14.18;;;;;;;1.22;100.00;97696.56;4990679;28;20027;-77
2021/01/08 01:04:46;;;;;;;30.02;13.07;;;;;;;1.15;100.00;97694.00;4991158;28;20025;-76
2021/01/08 01:07:11;;;;;;;;;;;;;;;1.26;100.00;97703.88;4992731;28;20594;-77
2021/01/08 01:09:37;;;;;;;28.88;16.55;;;;;;;1.16;100.00;97692.13;4992676;28;19917;-81
2021/01/08 01:12:02;;;;;;;;;;;;;;;1.25;100.00;97706.84;4992122;28;20045;-85
2021/01/08 01:14:28;;;;;;;32.25;15.18;;;;;;;1.24;100.00;97705.19;4992406;28;20374;-80
2021/01/08 01:16:53;;;;;;;27.65;14.80;;;;;;;1.23;100.00;97698.16;4992550;28;20495;-84
2021/01/08 01:19:19;;;;;;;26.42;14.45;;;;;;;1.23;100.00;97703.56;5007614;28;20490;-84
2021/01/08 01:21:44;;;;;;;;;;;;;;;1.35;100.00;97721.28;4991879;28;20088;-79
2021/01/08 01:24:10;;;;;;;24.48;12.77;;;;;;;1.32;100.00;97712.88;4991126;28;19968;-79
2021/01/08 01:26:35;;;;;;;;;;;;;;;1.51;100.00;97716.97;4992660;28;20030;-81
2021/01/08 01:29:00;;;;;;;31.00;14.38;;;;;;;1.36;100.00;97714.03;4991885;28;20322;-85
2021/01/08 01:31:26;;;;;;;;;;;;;;;1.35;100.00;97715.06;4992978;28;20018;-82
2021/01/08 01:33:51;;;;;;;33.65;13.93;;;;;;;1.25;100.00;97706.84;4991012;28;19918;-84
2021/01/08 01:36:16;;;;;;;;;;;;;;;1.36;100.00;97711.34;4991112;28;20026;-82
2021/01/08 01:38:42;;;;;;;27.38;12.23;;;;;;;1.35;100.00;97713.22;5006951;28;19910;-84
2021/01/08 01:41:07;;;;;;;;;;;;;;;1.32;100.00;97707.47;4992713;28;20443;-83
2021/01/08 01:43:33;;;;;;;20.58;12.25;;;;;;;1.25;100.00;97701.44;4991453;28;19909;-83
2021/01/08 01:45:59;;;;;;;24.00;13.02;;;;;;;1.27;100.00;97702.84;4991990;28;20084;-84
2021/01/08 01:48:25;;;;;;;25.50;13.43;;;;;;;1.19;100.00;97678.19;4990972;28;20029;-82
2021/01/08 01:50:52;;;;;;;21.98;14.52;;;;;;;1.32;100.00;97702.91;5007427;28;20463;-84
2021/01/08 01:53:18;;;;;;;32.45;16.33;;;;;;;1.23;100.00;97690.09;5006875;28;20145;-83
2021/01/08 01:55:46;;;;;;;29.23;15.73;;;;;;;1.13;100.00;97688.03;4990691;28;20063;-82
2021/01/08 01:58:11;;;;;;;26.05;14.98;;;;;;;1.21;100.00;97689.53;4990679;28;20070;-84
2021/01/08 02:00:37;;;;;;;27.13;16.20;;;;;;;1.21;100.00;97697.59;4990668;28;20447;-82
2021/01/08 02:03:17;;;;;;;29.35;16.27;;;;;;;1.14;100.00;97683.47;4991773;28;20475;-81
2021/01/08 02:05:46;;;;;;;26.77;14.75;;;;;;;1.17;100.00;97688.38;5006910;28;20033;-83
2021/01/08 02:08:17;;;;;;;29.40;14.68;;;;;;;1.16;100.00;97681.38;4990226;28;20026;-84
2021/01/08 02:11:00;;;;;;;28.50;14.68;;;;;;;1.15;100.00;97688.63;4990506;28;20438;-83
2021/01/08 02:13:35;;;;;;;26.92;14.00;;;;;;;1.36;100.00;97692.47;5006840;28;20030;-80
2021/01/08 02:16:01;;;;;;;26.92;14.93;;;;;;;1.45;100.00;97691.00;4990249;28;20441;-81
2021/01/08 02:18:27;;;;;;;25.77;14.93;;;;;;;1.44;100.00;97681.31;4991720;28;20029;-78
2021/01/08 02:20:59;;;;;;;24.95;15.32;;;;;;;1.45;100.00;97680.25;4994766;28;20101;-80
2021/01/08 02:23:35;;;;;;;27.17;13.18;;;;;;;1.53;100.00;97677.16;4991122;28;20034;-85
2021/01/08 02:26:01;;;;;;;24.38;14.65;;;;;;;1.49;100.00;97676.00;4998248;28;20033;-82
2021/01/08 02:28:27;;;;;;;28.02;15.07;;;;;;;1.47;100.00;97675.44;5010718;28;20037;-80
2021/01/08 02:30:54;;;;;;;28.50;14.38;;;;;;;1.49;100.00;97673.31;5009605;28;20026;-82
2021/01/08 02:33:20;;;;;;;30.63;14.40;;;;;;;1.33;100.00;97649.88;5010624;28;20053;-83
2021/01/08 02:35:50;;;;;;;27.40;15.43;;;;;;;1.47;100.00;97675.44;5010660;28;20033;-83
2021/01/08 02:38:19;;;;;;;29.75;14.20;;;;;;;1.36;100.00;97665.53;5000242;28;20412;-85
2021/01/08 02:40:46;;;;;;;25.40;14.48;;;;;;;1.29;100.00;97649.53;4989540;28;20481;-83
2021/01/08 02:43:15;;;;;;;24.85;12.82;;;;;;;1.29;100.00;97657.63;4990206;28;20033;-79
2021/01/08 02:45:41;;;;;;;21.75;14.13;;;;;;;1.39;100.00;97647.00;4989520;28;20130;-84
2021/01/08 02:48:07;;;;;;;22.92;12.00;;;;;;;1.48;100.00;97660.88;5006224;28;20129;-84
2021/01/08 02:50:32;;;;;;;;;;;;;;;1.39;100.00;97651.59;4990057;28;20464;-81
2021/01/08 02:53:02;;;;;;;26.50;13.43;;;;;;;1.29;100.00;97646.00;4991043;28;19913;-80
2021/01/08 02:55:33;;;;;;;26.38;14.10;;;;;;;1.25;100.00;97626.84;4989670;28;20026;-83
2021/01/08 02:58:00;;;;;;;25.60;14.57;;;;;;;1.44;100.00;97640.91;4989652;28;20384;-81
2021/01/08 03:00:33;;;;;;;25.15;14.27;;;;;;;1.50;100.00;97650.69;4990887;28;20092;-81
2021/01/08 03:03:00;;;;;;;27.20;12.98;;;;;;;1.49;100.00;97639.09;4990755;28;20014;-81
2021/01/08 03:05:27;;;;;;;24.35;13.85;;;;;;;1.42;100.00;97643.00;4989673;28;20460;-81
2021/01/08 03:07:53;;;;;;;27.95;14.07;;;;;;;1.49;100.00;97646.38;4990017;28;20029;-84
2021/01/08 03:10:19;;;;;;;30.05;13.27;;;;;;;1.50;100.00;97651.50;4990686;28;20121;-79
2021/01/08 03:12:50;;;;;;;;;;;;;;;1.39;100.00;97640.81;4997235;28;20026;-82
2021/01/08 03:15:16;;;;;;;23.85;12.85;;;;;;;1.42;100.00;97637.63;5013855;28;19917;-85
2021/01/08 03:17:41;;;;;;;31.55;17.15;;;;;;;1.38;100.00;97636.50;5013723;28;20044;-82
2021/01/08 03:20:07;;;;;;;;;;;;;;;1.41;100.00;97636.00;5013069;28;20026;-83
2021/01/08 03:22:32;;;;;;;27.83;13.98;;;;;;;1.40;100.00;97637.06;5013258;28;19937;-82
2021/01/08 03:24:57;;;;;;;26.98;14.60;;;;;;;1.41;100.00;97630.63;5013908;28;20025;-77
2021/01/08 03:27:23;;;;;;;;;;;;;;;1.43;100.00;97640.09;5012912;28;20121;-82
2021/01/08 03:29:48;;;;;;;26.15;15.25;;;;;;;1.32;100.00;97637.44;5005543;28;19922;-84
2021/01/08 03:32:13;;;;;;;31.33;15.57;;;;;;;1.37;100.00;97629.47;5005668;28;20030;-82
2021/01/08 03:34:39;;;;;;;;;;;;;;;1.29;100.00;97633.38;5012582;28;20025;-85
2021/01/08 03:37:04;;;;;;;35.40;16.33;;;;;;;1.26;100.00;97623.09;4994130;28;20009;-81
2021/01/08 03:39:29;;;;;;;;;;;;;;;1.23;100.00;97628.13;4993477;28;20022;-80
2021/01/08 03:41:55;;;;;;;32.85;15.85;;;;;;;1.22;100.00;97621.13;4995303;28;19917;-78
2021/01/08 03:44:20;;;;;;;;;;;;;;;1.16;100.00;97627.50;4994634;28;20092;-80
2021/01/08 03:46:46;;;;;;;27.52;14.40;;;;;;;1.19;100.00;97632.41;4992691;28;19924;-82
2021/01/08 03:49:11;;;;;;;;;;;;;;;1.16;100.00;97622.13;4994390;28;20026;-80
2021/01/08 03:51:36;;;;;;;31.42;15.25;;;;;;;1.11;100.00;97616.63;5008795;28;20004;-79
2021/01/08 03:54:01;;;;;;;;;;;;;;;1.14;100.00;97621.53;4992549;28;20493;-80
2021/01/08 03:56:27;;;;;;;27.38;15.13;;;;;;;1.13;100.00;97607.25;5008930;28;19918;-81
2021/01/08 03:58:52;;;;;;;36.20;16.85;;;;;;;1.22;100.00;97619.28;4993692;28;20050;-87
2021/01/08 04:01:18;;;;;;;;;;;;;;;1.25;100.00;97620.66;4994062;28;20069;-82
2021/01/08 04:03:43;;;;;;;29.48;13.73;;;;;;;1.20;100.00;97617.84;4992121;28;19926;-85
2021/01/08 04:06:08;;;;;;;;;;;;;;;1.11;100.00;97616.63;5009014;28;20039;-82
2021/01/08 04:08:34;;;;;;;30.50;14.32;;;;;;;1.02;100.00;97617.03;4992669;28;19913;-77
2021/01/08 04:10:59;;;;;;;24.67;13.95;;;;;;;1.12;100.00;97604.81;4992554;28;20383;-80
2021/01/08 04:13:24;;;;;;;26.10;13.73;;;;;;;1.04;100.00;97624.84;4993994;28;20037;-82
2021/01/08 04:15:50;;;;;;;28.10;13.52;;;;;;;0.93;100.00;97599.66;4992035;28;20147;-83
2021/01/08 04:18:15;;;;;;;;;;;;;;;0.95;100.00;97610.97;4992618;28;20096;-82
2021/01/08 04:20:41;;;;;;;26.42;13.05;;;;;;;1.01;100.00;97610.00;4993524;28;19968;-84
2021/01/08 04:23:06;;;;;;;33.50;14.30;;;;;;;0.98;100.00;97620.44;5009102;28;20038;-87
2021/01/08 04:25:32;;;;;;;27.38;14.43;;;;;;;0.99;100.00;97625.59;5013407;28;20044;-85
2021/01/08 04:27:57;;;;;;;;;;;;;;;1.08;100.00;97626.00;5013353;28;20526;-83
2021/01/08 04:30:23;;;;;;;23.95;12.73;;;;;;;1.11;100.00;97620.13;5012889;28;20259;-88
2021/01/08 04:32:49;;;;;;;32.10;13.10;;;;;;;0.98;100.00;97626.66;5012369;28;20026;-82
2021/01/08 04:35:15;;;;;;;29.02;14.05;;;;;;;1.09;100.00;97633.03;5012554;28;20018;-81
2021/01/08 04:37:40;;;;;;;26.75;13.30;;;;;;;1.06;100.00;97630.84;5012666;28;20109;-86
2021/01/08 04:40:06;;;;;;;33.90;15.52;;;;;;;1.14;100.00;97630.44;5010881;28;20071;-80
2021/01/08 04:42:35;;;;;;;27.70;14.60;;;;;;;1.10;100.00;97628.47;5012676;28;20475;-85
2021/01/08 04:45:05;;;;;;;22.58;12.88;;;;;;;1.01;100.00;97619.97;5011461;28;20032;-82
2021/01/08 04:47:33;;;;;;;29.27;13.88;;;;;;;1.15;100.00;97623.16;5011220;28;20105;-86
2021/01/08 04:50:00;;;;;;;25.67;12.10;;;;;;;1.03;100.00;97615.16;5011318;28;20040;-86
2021/01/08 04:52:26;;;;;;;21.20;13.20;;;;;;;1.03;100.00;97618.66;5011295;28;20026;-83
2021/01/08 04:54:52;;;;;;;22.75;12.23;;;;;;;1.07;100.00;97625.19;5012284;28;20053;-83
2021/01/08 04:57:18;;;;;;;23.42;14.07;;;;;;;1.09;100.00;97635.72;5010472;28;20467;-85
2021/01/08 04:59:44;;;;;;;23.58;13.13;;;;;;;1.06;100.00;97633.53;5012110;28;20026;-83
2021/01/08 05:02:10;;;;;;;20.58;13.05;;;;;;;1.05;100.00;97630.00;5010682;28;20394;-88
2021/01/08 05:04:37;;;;;;;18.10;12.60;;;;;;;1.11;100.00;97619.31;5010827;28;20491;-86
2021/01/08 05:07:02;;;;;;;18.35;10.63;;;;;;;1.07;100.00;97616.28;5011145;28;20042;-84
2021/01/08 05:09:28;;;;;;;20.42;12.02;;;;;;;1.25;100.00;97636.81;5012315;28;20041;-84
2021/01/08 05:11:56;;;;;;;23.02;12.30;;;;;;;1.12;100.00;97629.03;5010977;28;20041;-83
2021/01/08 05:14:25;;;;;;;24.35;11.80;;;;;;;1.22;100.00;97637.31;5011152;28;20029;-85
2021/01/08 05:16:51;;;;;;;18.02;10.35;;;;;;;1.16;100.00;97633.69;5010524;28;20091;-81
2021/01/08 05:19:17;;;;;;;26.33;12.18;;;;;;;1.04;100.00;97628.38;5009856;28;20479;-83
2021/01/08 05:21:43;;;;;;;23.58;12.43;;;;;;;1.13;100.00;97639.56;5010519;28;20030;-83
2021/01/08 05:24:10;;;;;;;17.75;10.50;;;;;;;1.17;100.00;97643.41;5004792;28;20023;-85
2021/01/08 05:26:35;;;;;;;21.75;13.25;;;;;;;1.11;100.00;97646.25;4990891;28;20042;-88
2021/01/08 05:29:02;;;;;;;21.40;11.45;;;;;;;1.13;100.00;97644.16;4992381;28;20033;-84
2021/01/08 05:31:29;;;;;;;20.50;11.35;;;;;;;1.23;100.00;97644.31;4991297;28;20125;-86
2021/01/08 05:33:56;;;;;;;21.35;11.93;;;;;;;1.25;100.00;97652.97;4990862;28;20030;-84
2021/01/08 05:36:22;;;;;;;25.50;13.95;;;;;;;1.28;100.00;97656.00;4990716;28;20089;-84
2021/01/08 05:38:53;;;;;;;35.17;13.10;;;;;;;1.12;100.00;97642.50;4990692;28;20022;-82
2021/01/08 05:41:22;;;;;;;24.63;13.25;;;;;;;1.20;100.00;97655.56;4992553;28;20038;-83
2021/01/08 05:43:48;;;;;;;26.33;13.10;;;;;;;1.24;100.00;97637.88;4991547;28;20022;-81
2021/01/08 05:46:20;;;;;;;37.45;15.82;;;;;;;1.31;100.00;97646.59;4990899;28;20093;-86
2021/01/08 05:48:56;;;;;;;30.30;15.15;;;;;;;1.25;100.00;97647.59;4991771;28;20030;-80
2021/01/08 05:51:24;;;;;;;20.52;10.48;;;;;;;1.31;100.00;97662.78;4990336;28;20023;-81
2021/01/08 05:53:55;;;;;;;28.88;12.27;;;;;;;1.36;100.00;97663.66;4991839;28;20444;-81
2021/01/08 05:56:21;;;;;;;26.40;9.15;;;;;;;1.13;100.00;97660.31;4990959;28;20026;-84
2021/01/08 05:58:48;;;;;;;17.20;9.88;;;;;;;1.10;100.00;97658.09;4992997;28;20069;-86
2021/01/08 06:01:14;;;;;;;21.80;8.38;;;;;;;1.27;100.00;97673.22;4992764;28;20160;-85
2021/01/08 06:03:41;;;;;;;18.25;9.18;;;;;;;1.23;100.00;97663.16;4991263;28;20081;-84
2021/01/08 06:06:07;;;;;;;15.90;7.63;;;;;;;1.01;100.00;97669.25;4991426;28;20074;-85
2021/01/08 06:08:56;;;;;;;13.70;8.85;;;;;;;0.88;100.00;97669.53;4991881;28;20026;-86
2021/01/08 06:11:28;;;;;;;15.38;9.90;;;;;;;0.81;100.00;97666.19;4991758;28;20366;-85
2021/01/08 06:13:56;;;;;;;14.98;9.18;;;;;;;0.88;100.00;97680.31;4991478;28;20117;-85
2021/01/08 06:16:22;;;;;;;14.05;8.00;;;;;;;0.82;100.00;97669.66;4990795;28;20025;-86
2021/01/08 06:18:50;;;;;;;11.55;7.88;;;;;;;0.74;100.00;97668.19;5006832;28;20049;-85
2021/01/08 06:21:48;;;;;;;11.38;6.53;;;;;;;0.58;100.00;97658.19;5004881;28;20105;-87
2021/01/08 06:24:23;;;;;;;11.93;6.97;;;;;;;0.92;100.00;97680.63;4997219;28;20022;-83
2021/01/08 06:26:52;;;;;;;11.35;7.38;;;;;;;0.86;100.00;97671.66;5000158;28;20578;-81
2021/01/08 06:29:22;;;;;;;13.02;7.80;;;;;;;0.82;100.00;97669.66;5002746;28;20502;-84
2021/01/08 06:31:56;;;;;;;9.30;6.65;;;;;;;0.76;100.00;97663.38;4996477;28;20438;-80
2021/01/08 06:34:30;;;;;;;8.38;6.03;;;;;;;0.92;100.00;97684.16;5008360;28;20034;-85
2021/01/08 06:37:10;;;;;;;10.15;5.75;;;;;;;0.87;100.00;97673.31;5003727;28;20030;-85
2021/01/08 06:39:44;;;;;;;7.90;5.38;;;;;;;0.95;100.00;97680.97;4991171;28;20035;-83
2021/01/08 06:42:10;;;;;;;8.05;4.43;;;;;;;0.98;98.59;97685.88;4983830;28;20117;-85
2021/01/08 06:44:36;;;;;;;7.10;4.20;;;;;;;1.00;98.97;97677.56;5004027;28;20026;-85
2021/01/08 06:47:04;;;;;;;10.10;7.00;;;;;;;1.12;100.00;97682.91;5012113;28;20030;-84
2021/01/08 06:49:31;;;;;;;11.85;6.80;;;;;;;1.26;100.00;97692.28;4995538;28;20026;-89
2021/01/08 06:51:59;;;;;;;11.20;7.15;;;;;;;1.14;100.00;97681.59;5012512;28;20503;-82
2021/01/08 06:54:27;;;;;;;14.13;6.82;;;;;;;1.04;100.00;97684.91;5012240;28;20021;-85
2021/01/08 06:56:58;;;;;;;14.93;7.00;;;;;;;0.91;100.00;97685.19;5014124;28;20478;-83
2021/01/08 06:59:28;;;;;;;11.02;6.25;;;;;;;0.95;100.00;97702.50;5009360;28;20050;-87
2021/01/08 07:02:00;;;;;;;12.85;7.13;;;;;;;0.88;100.00;97701.84;5008434;28;20069;-82
2021/01/08 07:04:27;;;;;;;13.85;7.70;;;;;;;0.89;100.00;97691.88;4996363;28;20434;-77
2021/01/08 07:06:54;;;;;;;23.70;8.70;;;;;;;0.87;100.00;97700.22;5001110;28;20077;-85
2021/01/08 07:09:20;;;;;;;15.80;8.38;;;;;;;0.75;100.00;97706.69;5004986;28;20018;-85
2021/01/08 07:11:56;;;;;;;21.75;8.20;;;;;;;0.75;100.00;97704.81;5004616;28;20030;-77
2021/01/08 07:14:23;;;;;;;16.23;8.30;;;;;;;0.79;100.00;97710.53;5013059;28;20018;-85
2021/01/08 07:17:27;;;;;;;14.45;8.30;;;;;;;0.71;100.00;97710.91;5011905;28;20022;-86
2021/01/08 07:19:52;;;;;;;17.38;8.60;;;;;;;0.50;100.00;97683.59;5011375;28;20038;-83
2021/01/08 07:22:22;;;;;;;17.17;9.73;;;;;;;0.65;100.00;97709.19;5004856;28;20026;-87
2021/01/08 07:24:48;;;;;;;26.50;9.73;;;;;;;0.80;100.00;97723.75;5006454;28;20030;-90
2021/01/08 07:27:17;;;;;;;15.02;9.68;;;;;;;0.75;100.00;97720.94;5007050;28;20045;-87
2021/01/08 07:29:56;;;;;;;13.75;7.57;;;;;;;0.70;100.00;97720.84;5002545;28;20033;-89
2021/01/08 07:32:38;;;;;;;14.35;9.38;;;;;;;0.71;100.00;97743.22;5003597;28;20488;-86
2021/01/08 07:35:23;;;;;;;16.23;9.18;;;;;;;0.66;100.00;97735.84;5006282;28;20053;-85
2021/01/08 07:38:07;;;;;;;14.05;8.25;;;;;;;0.73;100.00;97741.91;5007459;28;20057;-87
2021/01/08 07:40:34;;;;;;;13.13;8.45;;;;;;;0.74;100.00;97742.72;5011852;28;20027;-89
2021/01/08 07:43:01;;;;;;;13.32;7.90;;;;;;;0.82;100.00;97751.25;5003137;28;20097;-85
2021/01/08 07:45:55;;;;;;;11.70;8.88;;;;;;;0.84;100.00;97748.31;5005340;28;20025;-89
2021/01/08 07:48:22;;;;;;;18.23;8.43;;;;;;;0.94;100.00;97748.53;5008580;28;20064;-84
2021/01/08 07:51:00;;;;;;;17.83;9.30;;;;;;;0.80;100.00;97749.84;5008739;28;20014;-87
2021/01/08 07:53:41;;;;;;;17.83;7.82;;;;;;;0.87;100.00;97754.06;5009510;28;20426;-88
2021/01/08 07:56:23;;;;;;;14.48;8.77;;;;;;;0.92;100.00;97762.22;5004234;28;20867;-88
2021/01/08 07:58:54;;;;;;;15.25;8.85;;;;;;;0.84;100.00;97768.00;5008998;28;20125;-86
2021/01/08 08:01:20;;;;;;;16.88;9.35;;;;;;;0.67;100.00;97772.47;5009668;28;20018;-90
2021/01/08 08:03:56;;;;;;;14.63;8.57;;;;;;;0.61;100.00;97776.09;5006161;28;20021;-85
2021/01/08 08:06:22;;;;;;;17.13;9.68;;;;;;;0.64;100.00;97775.63;5007246;28;20030;-82
2021/01/08 08:08:47;;;;;;;15.00;9.05;;;;;;;0.64;100.00;97769.41;5001494;28;20086;-86
2021/01/08 08:11:19;;;;;;;18.23;10.55;;;;;;;0.70;100.00;97781.94;5001154;28;20424;-76
2021/01/08 08:13:45;;;;;;;17.15;10.68;;;;;;;0.71;100.00;97791.66;5001608;28;20034;-77
2021/01/08 08:16:11;;;;;;;21.77;11.40;;;;;;;0.73;100.00;97790.34;5003179;28;20018;-83
2021/01/08 08:18:50;;;;;;;21.15;11.52;;;;;;;0.81;100.00;97798.06;5004157;28;20049;-84
2021/01/08 08:21:16;;;;;;;20.90;11.40;;;;;;;0.83;100.00;97801.34;5018077;28;20026;-87
2021/01/08 08:23:41;;;;;;;19.17;11.75;;;;;;;0.85;100.00;97788.44;4999316;28;20018;-82
2021/01/08 08:26:06;;;;;;;22.77;11.60;;;;;;;0.87;100.00;97786.34;4999964;28;20037;-87
2021/01/08 08:28:32;;;;;;;20.92;12.88;;;;;;;0.88;100.00;97776.38;5003999;28;20101;-82
2021/01/08 08:30:58;;;;;;;;;;;;;;;0.96;100.00;97801.09;5003324;28;20030;-86
2021/01/08 08:33:23;;;;;;;20.42;9.77;;;;;;;0.97;100.00;97793.81;5001740;28;19921;-89
2021/01/08 08:35:52;;;;;;;22.83;10.38;;;;;;;0.97;100.00;97801.91;5011428;28;20048;-84
2021/01/08 08:38:18;;;;;;;20.15;10.60;;;;;;;1.10;100.00;97809.69;5002518;28;20033;-86
2021/01/08 08:40:44;;;;;;;15.55;10.15;;;;;;;1.01;100.00;97811.13;5003568;28;20030;-87
2021/01/08 08:43:18;;;;;;;;;;;;;;;1.05;100.00;97815.81;5002880;28;20022;-87
2021/01/08 08:45:43;;;;;;;20.02;11.23;;;;;;;1.07;100.00;97813.69;5008186;28;19913;-89
2021/01/08 08:48:12;;;;;;;17.85;11.20;;;;;;;0.99;100.00;97816.75;5002111;28;20089;-79
2021/01/08 08:50:45;;;;;;;26.33;11.18;;;;;;;0.91;100.00;97821.66;5007953;28;20928;-76
2021/01/08 08:53:14;;;;;;;21.45;11.10;;;;;;;0.96;100.00;97821.78;4997499;28;20022;-74
2021/01/08 08:55:43;;;;;;;20.15;12.75;;;;;;;0.94;100.00;97818.53;4992099;28;20161;-75
2021/01/08 08:58:11;;;;;;;19.58;9.57;;;;;;;1.05;100.00;97831.97;4996965;28;20414;-74
2021/01/08 09:00:39;;;;;;;17.83;10.10;;;;;;;0.99;100.00;97824.84;5000141;28;20026;-76
2021/01/08 09:03:24;;;;;;;17.77;10.00;;;;;;;0.98;100.00;97823.19;4999874;28;20073;-77
2021/01/08 09:05:53;;;;;;;17.83;9.98;;;;;;;1.08;100.00;97836.88;4997344;28;20025;-75
2021/01/08 09:08:26;;;;;;;17.83;10.23;;;;;;;1.02;100.00;97827.06;4999922;28;20025;-78
2021/01/08 09:10:58;;;;;;;14.43;9.77;;;;;;;1.10;100.00;97827.75;5013528;28;20034;-75
2021/01/08 09:13:37;;;;;;;18.55;11.57;;;;;;;1.00;100.00;97828.34;5001002;28;20053;-76
2021/01/08 09:16:27;;;;;;;31.10;14.40;;;;;;;1.18;100.00;97830.06;5001128;28;20045;-78
2021/01/08 09:18:59;;;;;;;18.20;11.05;;;;;;;1.10;100.00;97825.06;5000731;28;20041;-75
2021/01/08 09:21:31;;;;;;;16.70;9.30;;;;;;;1.17;100.00;97812.25;4995997;28;20025;-74
2021/01/08 09:24:00;;;;;;;20.00;9.90;;;;;;;1.15;100.00;97830.53;4999485;28;20557;-77
2021/01/08 09:26:28;;;;;;;18.63;9.90;;;;;;;1.13;100.00;97833.44;4999117;28;20441;-76
2021/01/08 09:28:55;;;;;;;19.60;10.35;;;;;;;0.97;100.00;97821.53;4998391;28;20038;-75
2021/01/08 09:31:37;;;;;;;19.27;10.63;;;;;;;1.12;100.00;97825.63;4995191;28;20446;-75
2021/01/08 09:34:03;;;;;;;18.83;9.70;;;;;;;1.24;100.00;97832.63;4990200;28;20022;-74
2021/01/08 09:36:33;;;;;;;16.27;9.90;;;;;;;1.23;100.00;97838.22;4989160;28;20018;-76
2021/01/08 09:39:09;;;;;;;18.58;9.13;;;;;;;1.32;100.00;97839.47;4990388;28;20030;-76
2021/01/08 09:41:37;;;;;;;19.98;9.63;;;;;;;1.25;100.00;97841.50;4988806;28;20022;-76
2021/01/08 09:44:05;;;;;;;16.65;9.70;;;;;;;1.24;100.00;97837.19;4995775;28;20483;-80
2021/01/08 09:46:31;;;;;;;21.58;10.88;;;;;;;1.13;100.00;97833.44;4991393;28;20124;-76
2021/01/08 09:49:06;;;;;;;16.52;9.60;;;;;;;1.15;100.00;97831.34;4989964;28;20848;-79
2021/01/08 09:51:32;;;;;;;20.83;10.90;;;;;;;1.21;100.00;97830.41;4990073;28;20109;-76
2021/01/08 09:53:57;;;;;;;;;;;;;;;1.23;100.00;97832.84;5001089;28;20117;-76
2021/01/08 09:56:23;;;;;;;18.27;10.82;;;;;;;1.27;100.00;97812.47;4990311;28;20016;-75
2021/01/08 09:59:15;;;;;;;23.83;11.32;;;;;;;1.25;100.00;97828.06;4988615;28;20057;-77
2021/01/08 10:02:07;;;;;;;17.45;9.88;;;;;;;1.13;100.00;97817.28;4990016;28;20770;-75
2021/01/08 10:04:38;;;;;;;21.70;10.55;;;;;;;1.17;100.00;97823.84;4989557;28;20029;-75
2021/01/08 10:07:05;;;;;;;16.00;9.07;;;;;;;1.17;100.00;97833.78;5002323;28;20030;-77
2021/01/08 10:09:51;;;;;;;20.73;9.85;;;;;;;1.22;100.00;97820.44;5008031;28;20026;-78
2021/01/08 10:12:18;;;;;;;17.03;9.87;;;;;;;1.40;100.00;97826.47;5009320;28;20479;-76
2021/01/08 10:14:43;;;;;;;17.80;11.25;;;;;;;1.40;100.00;97833.72;5003329;28;20027;-77
2021/01/08 10:17:13;;;;;;;20.95;11.05;;;;;;;1.38;100.00;97819.69;4996686;28;20018;-75
2021/01/08 10:19:40;;;;;;;22.95;11.95;;;;;;;1.46;100.00;97830.06;4996264;28;20105;-76
2021/01/08 10:22:06;;;;;;;20.23;9.68;;;;;;;1.78;100.00;97815.06;4999318;28;20029;-76
2021/01/08 10:24:31;;;;;;;21.63;11.68;;;;;;;1.95;99.98;97826.66;5003075;28;20034;-74
2021/01/08 10:26:56;;;;;;;;;;;;;;;1.75;100.00;97831.72;4996627;28;20416;-75
2021/01/08 10:29:38;;;;;;;21.73;10.63;;;;;;;1.64;100.00;97835.25;4989862;28;20275;-75
2021/01/08 10:32:13;;;;;;;18.30;10.73;;;;;;;1.61;100.00;97835.75;4993829;28;20034;-76
2021/01/08 10:34:41;;;;;;;19.43;12.87;;;;;;;1.56;100.00;97822.19;4993341;28;20093;-75
2021/01/08 10:37:18;;;;;;;19.52;12.88;;;;;;;1.52;100.00;97827.25;4993635;28;20053;-75
2021/01/08 10:39:46;;;;;;;;;;;;;;;1.51;100.00;97830.16;4993462;28;20025;-75
2021/01/08 10:42:14;;;;;;;19.65;11.88;;;;;;;1.50;100.00;97829.34;5013103;28;19914;-75
2021/01/08 10:44:40;;;;;;;20.08;9.35;;;;;;;1.44;100.00;97824.13;5013386;28;20030;-75
2021/01/08 10:47:05;;;;;;;15.93;9.25;;;;;;;1.69;98.94;97832.69;5010606;28;20026;-75
2021/01/08 10:49:31;;;;;;;15.88;10.50;;;;;;;1.63;98.88;97835.53;5012502;28;20042;-75
2021/01/08 10:51:56;;;;;;;;;;;;;;;1.67;98.03;97840.16;5013373;28;20386;-76
2021/01/08 10:54:21;;;;;;;19.42;9.43;;;;;;;1.73;99.07;97833.00;5011755;28;19964;-75
2021/01/08 10:56:47;;;;;;;;;;;;;;;1.68;99.55;97839.13;5013203;28;20041;-75
2021/01/08 10:59:13;;;;;;;22.40;12.65;;;;;;;1.81;99.45;97838.00;4996925;28;19921;-75
2021/01/08 11:01:42;;;;;;;;;;;;;;;1.69;99.36;97838.06;4993474;28;20030;-76
2021/01/08 11:04:07;;;;;;;19.88;10.95;;;;;;;1.50;99.97;97821.25;4993189;28;19917;-75
2021/01/08 11:06:33;;;;;;;16.60;11.55;;;;;;;1.70;99.57;97828.91;5003336;28;20022;-76
2021/01/08 11:08:58;;;;;;;;;;;;;;;2.03;98.42;97831.69;5001572;28;20034;-75
2021/01/08 11:11:24;;;;;;;17.00;8.13;;;;;;;1.85;97.46;97826.47;4999832;28;19921;-75
2021/01/08 11:13:49;;;;;;;;;;;;;;;1.89;97.49;97833.03;4992092;28;20061;-75
2021/01/08 11:16:15;;;;;;;24.55;17.85;;;;;;;1.97;98.67;97829.13;4993158;28;19918;-76
2021/01/08 11:18:41;;;;;;;20.50;12.52;;;;;;;2.76;97.29;97827.94;4993787;28;20043;-75
2021/01/08 11:21:06;;;;;;;13.50;9.40;;;;;;;2.76;95.72;97827.94;4993466;28;20018;-75
2021/01/08 11:23:32;;;;;;;14.07;9.38;;;;;;;2.37;95.06;97812.78;4992808;28;20027;-75
2021/01/08 11:25:57;;;;;;;17.88;10.45;;;;;;;2.41;95.96;97824.72;5000339;28;20124;-76
2021/01/08 11:28:22;;;;;;;;;;;;;;;2.23;96.35;97827.66;5004401;28;20376;-75
2021/01/08 11:30:49;;;;;;;15.57;8.15;;;;;;;2.10;97.10;97818.00;5010422;28;19914;-76
2021/01/08 11:33:14;;;;;;;19.35;8.85;;;;;;;2.30;97.02;97820.22;4996026;28;20088;-77
2021/01/08 11:35:40;;;;;;;12.15;8.27;;;;;;;2.08;95.50;97814.75;4996238;28;20037;-76
2021/01/08 11:38:05;;;;;;;23.25;13.23;;;;;;;1.91;97.99;97809.31;5012511;28;20037;-77